Time;durP1;ratioP1;P1;durP2;ratioP2;P2;SDS_P1;SDS_P2;PMS_P1;PMS_P2;Temp;Humidity;BMP_temperature;BMP_pressure;BME280_temperature;BME280_humidity;BME280_pressure;Samples;Min_cycle;Max_cycle;Signal;HPM_P1;HPM_P2
2022/07/18 00:02:11;;;;;;;2.92;2.50;;;20.70;34.10;;;21.15;31.43;98363.63;5025762;28;20064;-56
2022/07/18 00:04:39;;;;;;;2.40;2.10;;;20.60;34.20;;;21.11;31.54;98362.38;5026035;28;20053;-52
2022/07/18 00:07:10;;;;;;;5.65;2.10;;;20.60;34.30;;;21.09;31.69;98375.28;5029361;28;20049;-56
2022/07/18 00:09:40;;;;;;;3.20;2.22;;;20.60;34.30;;;21.03;31.64;98371.56;5044316;28;20048;-56
2022/07/18 00:12:10;;;;;;;4.15;2.53;;;20.50;34.70;;;20.98;31.46;98367.81;5011916;28;20268;-57
2022/07/18 00:14:38;;;;;;;3.40;2.30;;;20.40;34.70;;;20.93;31.88;98371.13;5029471;28;20096;-56
2022/07/18 00:17:07;;;;;;;3.95;2.25;;;20.40;35.30;;;20.90;31.74;98366.16;5029679;28;20053;-55
2022/07/18 00:19:36;;;;;;;2.40;2.20;;;20.40;34.70;;;20.89;31.73;98366.38;5026831;28;20068;-57
2022/07/18 00:22:05;;;;;;;2.30;1.88;;;20.40;34.70;;;20.85;31.92;98366.78;5028447;28;20057;-56
2022/07/18 00:24:33;;;;;;;3.08;2.15;;;20.30;34.70;;;20.84;31.75;98367.84;5028375;28;20041;-56
2022/07/18 00:27:02;;;;;;;3.95;2.20;;;20.30;34.70;;;20.80;32.18;98365.72;5028240;28;20048;-57
2022/07/18 00:29:31;;;;;;;3.88;2.13;;;20.30;34.80;;;20.79;31.78;98367.63;5029170;28;20055;-57
2022/07/18 00:31:59;;;;;;;6.53;2.88;;;20.30;34.90;;;20.77;31.83;98367.00;5027115;28;20053;-56
2022/07/18 00:34:27;;;;;;;3.55;2.38;;;20.30;34.70;;;20.78;31.92;98368.66;5029777;28;20045;-52
2022/07/18 00:36:55;;;;;;;3.53;2.65;;;20.30;34.80;;;20.76;32.16;98367.19;5029516;28;20049;-55
2022/07/18 00:39:22;;;;;;;3.20;2.35;;;20.30;35.00;;;20.74;31.86;98356.56;5028484;28;20059;-55
2022/07/18 00:41:51;;;;;;;3.95;2.28;;;20.20;34.90;;;20.70;32.00;98363.44;5029937;28;20059;-56
2022/07/18 00:44:28;;;;;;;2.88;2.00;;;20.20;35.10;;;20.67;32.21;98358.47;5027190;28;20045;-56
2022/07/18 00:47:01;;;;;;;2.83;2.30;;;20.20;35.90;;;20.64;32.41;98359.69;5029599;28;20141;-54
2022/07/18 00:49:30;;;;;;;3.97;2.70;;;20.10;36.00;;;20.58;32.26;98360.50;5028200;28;20344;-50
2022/07/18 00:51:58;;;;;;;2.35;1.80;;;20.00;35.40;;;20.54;32.36;98358.44;5028554;28;20258;-53
2022/07/18 00:54:26;;;;;;;5.03;1.95;;;19.90;35.40;;;20.49;32.35;98353.66;5028971;28;20064;-53
2022/07/18 00:56:55;;;;;;;3.28;2.10;;;19.90;35.50;;;20.44;32.39;98356.97;5028085;28;20065;-53
2022/07/18 01:01:42;;;;;;;6.03;2.13;;;19.90;35.50;;;20.41;32.00;98359.25;5026845;28;20049;-50
2022/07/18 01:02:10;;;;;;;3.65;1.77;;;19.90;35.60;;;20.36;32.41;98359.06;5027171;28;20055;-56
2022/07/18 01:04:38;;;;;;;6.90;2.20;;;19.80;35.60;;;20.32;32.30;98358.63;5028134;28;20056;-57
2022/07/18 01:07:06;;;;;;;4.03;2.08;;;19.80;35.40;;;20.30;32.38;98362.56;5029191;28;20048;-56
2022/07/18 01:09:34;;;;;;;3.15;2.10;;;19.80;35.50;;;20.26;32.21;98357.59;5028547;28;20095;-55
2022/07/18 01:12:03;;;;;;;2.10;1.90;;;19.70;35.30;;;20.22;32.35;98353.63;5028959;28;20053;-53
2022/07/18 01:14:32;;;;;;;2.45;1.90;;;19.70;35.30;;;20.20;32.56;98354.84;5028429;28;20058;-55
2022/07/18 01:16:59;;;;;;;2.85;2.05;;;19.70;35.40;;;20.19;32.68;98356.75;5027847;28;20061;-53
2022/07/18 01:19:27;;;;;;;3.97;2.10;;;19.70;35.50;;;20.16;32.43;98343.66;5027437;28;20378;-54
2022/07/18 01:21:55;;;;;;;2.58;1.77;;;19.70;35.50;;;20.15;32.36;98346.56;5028907;28;20055;-56
2022/07/18 01:24:23;;;;;;;4.10;2.33;;;19.60;35.40;;;20.13;32.53;98345.94;5028963;28;20045;-54
2022/07/18 01:26:51;;;;;;;5.97;2.70;;;19.60;35.40;;;20.12;32.44;98355.06;5028332;28;20391;-53
2022/07/18 01:29:19;;;;;;;4.00;1.80;;;19.60;35.40;;;20.09;32.45;98350.91;5025922;28;20240;-54
2022/07/18 01:31:47;;;;;;;2.42;1.98;;;19.60;35.50;;;20.09;32.70;98352.78;5007391;28;20072;-51
2022/07/18 01:34:14;;;;;;;3.17;1.67;;;19.60;35.50;;;20.04;32.63;98351.50;5006680;28;20065;-52
2022/07/18 01:36:42;;;;;;;2.75;2.05;;;19.50;35.60;;;20.01;32.65;98349.22;5009174;28;20057;-54
2022/07/18 01:39:10;;;;;;;4.53;2.20;;;19.50;35.70;;;19.97;32.89;98353.38;5008335;28;20060;-53
2022/07/18 01:41:38;;;;;;;2.83;2.00;;;19.40;35.70;;;19.90;32.91;98352.53;5007847;28;20053;-54
2022/07/18 01:44:06;;;;;;;3.45;2.25;;;19.40;35.90;;;19.89;32.98;98353.56;5008197;28;20042;-53
2022/07/18 01:46:34;;;;;;;4.93;1.90;;;19.40;36.00;;;19.90;32.87;98351.69;5007763;28;20057;-54
2022/07/18 01:49:02;;;;;;;3.28;2.30;;;19.40;35.90;;;19.88;32.91;98348.38;5008484;28;20042;-55
2022/07/18 01:51:30;;;;;;;4.50;1.88;;;19.40;35.80;;;19.81;32.91;98351.91;5023495;28;20244;-54
2022/07/18 01:54:01;;;;;;;2.15;1.77;;;19.30;35.80;;;19.79;32.78;98353.97;5007875;28;20050;-55
2022/07/18 01:56:29;;;;;;;4.72;2.78;;;19.30;35.90;;;19.77;33.27;98355.19;5008404;28;20279;-57
2022/07/18 01:58:57;;;;;;;4.75;2.55;;;19.20;36.10;;;19.73;33.31;98348.53;5007566;28;20084;-56
2022/07/18 02:01:25;;;;;;;4.25;1.80;;;19.30;36.50;;;19.71;33.65;98347.88;5006605;28;20054;-55
2022/07/18 02:03:52;;;;;;;3.00;2.00;;;19.20;36.70;;;19.66;33.76;98349.31;5007034;28;20049;-53
2022/07/18 02:06:20;;;;;;;4.18;1.80;;;19.20;36.90;;;19.63;33.89;98346.16;5008457;28;20056;-54
2022/07/18 02:08:48;;;;;;;2.58;2.38;;;19.10;37.10;;;19.61;33.94;98354.47;5008298;28;20052;-54
2022/07/18 02:11:16;;;;;;;3.30;2.13;;;19.10;37.00;;;19.57;33.86;98349.69;5007235;28;20333;-56
2022/07/18 02:13:44;;;;;;;3.33;1.85;;;19.00;37.70;;;19.52;33.97;98352.97;5006082;28;20347;-55
2022/07/18 02:16:12;;;;;;;2.20;2.00;;;19.00;37.20;;;19.51;34.23;98353.19;5008110;28;20350;-56
2022/07/18 02:18:40;;;;;;;2.70;2.35;;;19.00;37.50;;;19.45;34.30;98358.34;5006382;28;20406;-54
2022/07/18 02:21:10;;;;;;;2.92;1.90;;;18.90;37.70;;;19.40;34.50;98352.72;5006863;28;20379;-56
2022/07/18 02:23:38;;;;;;;2.13;1.67;;;18.90;38.00;;;19.38;34.60;98356.66;5006975;28;20370;-54
2022/07/18 02:26:07;;;;;;;3.65;2.08;;;18.80;38.10;;;19.33;34.64;98351.88;5006684;28;20050;-57
2022/07/18 02:28:35;;;;;;;2.88;1.75;;;18.80;38.20;;;19.30;34.59;98352.25;5006548;28;20366;-58
2022/07/18 02:31:05;;;;;;;2.75;2.10;;;18.70;38.50;;;19.27;34.87;98349.97;5006507;28;20054;-58
2022/07/18 02:33:33;;;;;;;4.30;2.50;;;18.70;38.50;;;19.25;35.13;98352.88;5007193;28;20448;-53
2022/07/18 02:36:01;;;;;;;2.90;1.80;;;18.70;38.60;;;19.22;34.97;98353.25;5008177;28;20478;-53
2022/07/18 02:38:30;;;;;;;3.47;2.17;;;18.70;38.60;;;19.20;34.98;98346.41;5006836;28;20049;-52
2022/07/18 02:40:58;;;;;;;2.47;1.67;;;18.60;38.60;;;19.18;35.03;98360.09;5006629;28;20100;-55
2022/07/18 02:43:25;;;;;;;2.55;1.80;;;18.60;38.70;;;19.14;35.09;98355.31;5006957;28;20058;-55
2022/07/18 02:45:53;;;;;;;2.83;2.00;;;18.60;38.80;;;19.12;35.05;98354.66;5007937;28;20048;-56
2022/07/18 02:48:21;;;;;;;4.57;2.42;;;18.60;38.80;;;19.08;35.07;98352.34;5006412;28;20264;-54
2022/07/18 02:50:49;;;;;;;3.03;2.03;;;18.50;38.70;;;19.04;35.20;98350.25;5007930;28;20050;-56
2022/07/18 02:53:19;;;;;;;2.33;1.75;;;18.50;38.90;;;19.01;35.17;98346.06;5007755;28;20046;-55
2022/07/18 02:55:47;;;;;;;2.50;1.92;;;18.50;38.90;;;19.00;35.17;98347.13;5006988;28;20079;-53
2022/07/18 02:58:14;;;;;;;2.67;1.70;;;18.50;38.80;;;19.01;35.14;98346.06;5006712;28;20062;-50
2022/07/18 03:00:43;;;;;;;5.03;1.70;;;18.50;38.70;;;19.04;35.31;98344.88;5006895;28;20436;-52
2022/07/18 03:03:11;;;;;;;2.92;1.80;;;18.60;38.70;;;19.10;35.10;98351.34;5005628;28;20323;-50
2022/07/18 03:05:39;;;;;;;3.78;2.03;;;18.70;38.50;;;19.12;35.13;98357.38;5006499;28;20056;-53
2022/07/18 03:08:07;;;;;;;2.00;1.52;;;18.70;38.40;;;19.13;34.96;98361.72;5004994;28;20056;-54
2022/07/18 03:10:36;;;;;;;3.30;1.80;;;18.70;38.50;;;19.12;35.08;98355.50;5006658;28;20042;-55
2022/07/18 03:13:04;;;;;;;2.13;1.80;;;18.70;38.60;;;19.10;35.37;98354.03;5007277;28;20049;-54
2022/07/18 03:15:32;;;;;;;4.95;2.38;;;18.70;38.70;;;19.07;35.40;98364.16;5007447;28;20358;-54
2022/07/18 03:18:00;;;;;;;4.32;2.15;;;18.60;38.80;;;19.06;35.48;98359.00;5004163;28;20060;-52
2022/07/18 03:20:28;;;;;;;3.60;2.20;;;18.60;38.70;;;19.06;35.47;98362.50;5006343;28;20262;-56
2022/07/18 03:22:56;;;;;;;5.57;2.00;;;18.60;38.80;;;19.04;35.52;98361.88;5005435;28;20049;-56
2022/07/18 03:25:25;;;;;;;3.60;1.90;;;18.60;38.90;;;19.00;35.25;98357.91;5006496;28;20042;-56
2022/07/18 03:27:53;;;;;;;4.70;2.08;;;18.60;39.10;;;18.99;35.78;98366.19;5004211;28;20053;-52
2022/07/18 03:30:21;;;;;;;3.15;1.80;;;18.50;39.20;;;18.96;35.89;98361.19;5007230;28;20061;-55
2022/07/18 03:32:49;;;;;;;4.20;2.95;;;18.50;39.40;;;18.95;35.94;98356.84;5007259;28;20080;-54
2022/07/18 03:35:17;;;;;;;3.75;2.47;;;18.50;39.50;;;18.93;35.99;98359.72;5006830;28;20396;-55
2022/07/18 03:37:45;;;;;;;3.25;2.10;;;18.50;39.50;;;18.92;35.99;98358.06;5006521;28;20364;-56
2022/07/18 03:40:13;;;;;;;4.45;2.17;;;18.50;39.50;;;18.92;35.96;98355.38;5010028;28;20344;-53
2022/07/18 03:42:41;;;;;;;3.63;2.75;;;18.50;39.50;;;18.89;36.07;98353.06;5010502;28;20352;-55
2022/07/18 03:45:09;;;;;;;2.67;2.33;;;18.50;39.50;;;18.86;36.04;98354.31;5008411;28;20060;-56
2022/07/18 03:47:37;;;;;;;4.25;3.30;;;18.40;39.50;;;18.87;36.06;98352.44;5008301;28;20326;-56
2022/07/18 03:50:06;;;;;;;4.28;2.60;;;18.50;39.50;;;18.86;35.98;98362.41;5010107;28;20076;-52
2022/07/18 03:52:34;;;;;;;3.75;1.95;;;18.40;39.50;;;18.82;36.13;98363.78;5010660;28;20064;-55
2022/07/18 03:55:03;;;;;;;6.60;2.40;;;18.40;39.80;;;18.78;36.43;98362.50;5010237;28;20059;-55
2022/07/18 03:57:30;;;;;;;4.07;2.10;;;18.30;40.10;;;18.78;36.31;98353.56;5008700;28;20063;-56
2022/07/18 03:59:58;;;;;;;2.80;1.95;;;18.30;40.00;;;18.76;36.39;98355.63;5009877;28;20058;-54
2022/07/18 04:02:26;;;;;;;4.47;2.05;;;18.30;40.20;;;18.77;36.38;98344.66;5009194;28;20060;-55
2022/07/18 04:04:54;;;;;;;7.13;2.40;;;18.30;40.10;;;18.75;36.29;98359.38;5009845;28;20046;-54
2022/07/18 04:07:22;;;;;;;3.63;2.20;;;18.30;39.90;;;18.74;36.38;98352.31;5009602;28;20067;-55
2022/07/18 04:09:50;;;;;;;5.55;2.20;;;18.30;39.90;;;18.73;36.61;98356.88;5009354;28;20045;-54
2022/07/18 04:12:17;;;;;;;3.30;2.13;;;18.30;40.10;;;18.72;36.42;98357.88;5009570;28;20243;-55
2022/07/18 04:14:45;;;;;;;5.32;2.35;;;18.30;40.00;;;18.69;36.27;98350.19;5009071;28;20340;-55
2022/07/18 04:17:13;;;;;;;5.45;2.20;;;18.30;39.90;;;18.71;35.84;98350.84;5008791;28;20356;-54
2022/07/18 04:19:41;;;;;;;4.28;2.15;;;18.40;38.90;;;18.74;35.22;98355.00;5008288;28;20054;-50
2022/07/18 04:22:09;;;;;;;2.47;2.22;;;18.40;38.10;;;18.80;35.25;98355.06;5009599;28;20053;-55
2022/07/18 04:24:36;;;;;;;5.13;2.15;;;18.50;37.90;;;18.84;34.90;98358.19;5009547;28;20056;-55
2022/07/18 04:27:04;;;;;;;3.25;2.00;;;18.60;37.40;;;18.87;34.73;98349.72;5009357;28;20279;-55
2022/07/18 04:29:32;;;;;;;4.28;2.50;;;18.60;37.10;;;18.93;34.59;98356.19;5008555;28;20045;-57
2022/07/18 04:32:00;;;;;;;2.67;1.90;;;18.70;36.90;;;18.98;34.35;98351.88;5009239;28;20060;-57
2022/07/18 04:34:28;;;;;;;5.47;2.00;;;18.80;36.70;;;19.04;34.18;98348.38;5010183;28;20057;-52
2022/07/18 04:36:56;;;;;;;1.98;1.80;;;18.90;36.50;;;19.12;34.13;98342.00;5007160;28;20378;-53
2022/07/18 04:39:24;;;;;;;3.30;1.90;;;18.90;36.30;;;19.20;34.12;98360.72;5009600;28;20267;-53
2022/07/18 04:41:51;;;;;;;2.53;2.03;;;19.00;36.20;;;19.24;34.12;98351.19;5006873;28;20049;-55
2022/07/18 04:44:19;;;;;;;4.97;2.63;;;19.10;36.10;;;19.30;34.00;98356.84;5008938;28;20060;-54
2022/07/18 04:46:47;;;;;;;2.65;1.98;;;19.10;36.10;;;19.33;34.09;98354.56;5008864;28;20072;-56
2022/07/18 04:49:15;;;;;;;2.72;1.90;;;19.20;36.10;;;19.37;34.09;98349.63;5008956;28;20049;-52
2022/07/18 04:51:43;;;;;;;2.65;1.95;;;19.20;36.10;;;19.40;34.05;98352.72;5006776;28;20060;-54
2022/07/18 04:54:12;;;;;;;3.00;2.50;;;19.20;36.20;;;19.43;34.14;98355.03;5009861;28;20549;-53
2022/07/18 04:56:40;;;;;;;3.85;2.20;;;19.20;36.50;;;19.46;34.21;98351.09;5008343;28;20068;-54
2022/07/18 04:59:07;;;;;;;2.92;1.90;;;19.30;36.70;;;19.47;34.20;98341.97;5008927;28;20398;-52
2022/07/18 05:01:35;;;;;;;2.42;1.65;;;19.30;36.60;;;19.51;34.01;98340.53;5008899;28;20049;-54
2022/07/18 05:04:04;;;;;;;3.40;1.90;;;19.30;36.50;;;19.54;34.01;98336.56;5008845;28;20057;-52
2022/07/18 05:06:32;;;;;;;7.35;2.25;;;19.30;36.40;;;19.54;34.14;98337.44;5008899;28;20256;-53
2022/07/18 05:09:01;;;;;;;2.60;1.95;;;19.30;36.50;;;19.59;33.74;98343.03;5006832;28;20248;-54
2022/07/18 05:11:29;;;;;;;2.40;1.90;;;19.40;36.90;;;19.62;33.69;98348.06;5009244;28;20049;-55
2022/07/18 05:13:56;;;;;;;2.47;1.90;;;19.50;35.90;;;19.66;33.60;98343.91;5006466;28;20052;-54
2022/07/18 05:16:24;;;;;;;2.90;2.15;;;19.60;35.60;;;19.70;33.38;98352.44;5009039;28;20080;-52
2022/07/18 05:18:52;;;;;;;7.95;2.35;;;19.70;35.40;;;19.76;33.49;98348.94;5007935;28;20348;-54
2022/07/18 05:21:20;;;;;;;4.72;2.60;;;19.70;35.30;;;19.81;33.33;98345.63;5008667;28;20049;-54
2022/07/18 05:23:48;;;;;;;3.40;2.28;;;19.70;35.30;;;19.86;33.48;98345.88;5009099;28;20062;-54
2022/07/18 05:26:16;;;;;;;2.45;1.92;;;19.80;35.30;;;19.92;33.50;98349.63;5009415;28;20048;-54
2022/07/18 05:28:44;;;;;;;4.55;2.63;;;19.80;35.30;;;19.94;33.36;98345.66;5008170;28;20056;-57
2022/07/18 05:31:12;;;;;;;2.78;2.05;;;19.90;35.20;;;19.98;33.39;98349.63;5008871;28;20063;-55
2022/07/18 05:33:40;;;;;;;4.57;2.40;;;20.00;35.10;;;20.02;33.45;98353.59;5005964;28;20054;-52
2022/07/18 05:36:09;;;;;;;4.38;2.30;;;20.00;35.10;;;20.06;33.37;98346.75;5008151;28;20348;-54
2022/07/18 05:38:37;;;;;;;3.30;2.25;;;20.10;35.30;;;20.12;33.56;98347.78;5007253;28;20465;-55
2022/07/18 05:41:06;;;;;;;3.13;2.30;;;20.10;35.30;;;20.19;34.08;98345.94;5007759;28;20054;-49
2022/07/18 05:43:34;;;;;;;5.47;2.22;;;20.20;36.20;;;20.22;34.69;98350.94;5008519;28;20053;-53
2022/07/18 05:46:01;;;;;;;4.35;2.95;;;20.20;37.00;;;20.25;35.15;98342.41;5006516;28;20053;-53
2022/07/18 05:48:29;;;;;;;3.83;2.88;;;20.20;37.70;;;20.31;35.26;98345.31;5006576;28;20064;-51
2022/07/18 05:50:57;;;;;;;4.65;2.72;;;20.30;38.20;;;20.33;35.80;98357.59;5007473;28;20050;-56
2022/07/18 05:53:25;;;;;;;5.18;2.88;;;20.30;38.50;;;20.34;35.94;98358.44;5007425;28;20056;-53
2022/07/18 05:55:53;;;;;;;2.80;2.33;;;20.30;38.80;;;20.37;35.89;98355.31;5007635;28;20068;-50
2022/07/18 05:58:21;;;;;;;4.28;2.53;;;20.30;38.70;;;20.41;36.04;98359.25;5007710;28;20401;-51
2022/07/18 06:00:49;;;;;;;14.85;3.28;;;20.30;38.90;;;20.45;36.25;98355.94;5008288;28;20045;-50
2022/07/18 06:03:17;;;;;;;13.88;3.30;;;20.40;38.90;;;20.51;36.30;98359.69;5007049;28;20240;-50
2022/07/18 06:05:45;;;;;;;19.70;4.47;;;20.50;39.20;;;20.55;36.63;98360.09;5007295;28;20044;-49
2022/07/18 06:08:13;;;;;;;17.25;5.20;;;20.50;39.50;;;20.58;36.57;98360.50;5007635;28;20058;-50
2022/07/18 06:10:41;;;;;;;15.13;4.28;;;20.60;39.80;;;20.62;36.88;98361.78;5007661;28;20052;-55
2022/07/18 06:13:13;;;;;;;13.73;4.55;;;20.60;39.90;;;20.65;36.97;98361.38;5008026;28;20443;-50
2022/07/18 06:15:41;;;;;;;12.27;4.40;;;20.60;40.00;;;20.69;37.08;98366.38;5008529;28;20049;-51
2022/07/18 06:18:09;;;;;;;7.75;3.15;;;20.70;40.20;;;20.72;37.37;98366.78;5007749;28;20061;-49
2022/07/18 06:20:37;;;;;;;7.85;2.70;;;20.70;40.40;;;20.77;37.32;98368.88;5006923;28;20079;-54
2022/07/18 06:23:05;;;;;;;12.35;3.00;;;20.80;40.40;;;20.81;37.48;98368.22;5006541;28;20046;-52
2022/07/18 06:25:33;;;;;;;8.48;3.55;;;20.80;40.60;;;20.84;37.84;98365.13;5006312;28;20058;-50
2022/07/18 06:28:00;;;;;;;7.32;2.30;;;20.90;40.90;;;20.90;37.58;98371.56;5006853;28;20087;-53
2022/07/18 06:30:29;;;;;;;7.50;2.65;;;20.90;40.90;;;20.93;37.66;98368.44;5007465;28;20050;-56
2022/07/18 06:32:57;;;;;;;7.00;2.60;;;21.00;40.80;;;20.98;37.79;98360.53;5007473;28;20056;-56
2022/07/18 06:35:25;;;;;;;6.30;3.00;;;21.00;40.70;;;21.03;37.65;98352.63;5007838;28;20054;-54
2022/07/18 06:37:53;;;;;;;3.60;2.33;;;21.10;41.00;;;21.11;38.21;98354.25;5006183;28;20257;-54
2022/07/18 06:40:25;;;;;;;11.52;3.28;;;21.20;41.10;;;21.16;38.25;98369.84;5006758;28;20088;-53
2022/07/18 06:42:53;;;;;;;6.85;2.50;;;21.20;41.30;;;21.19;38.15;98364.84;5006928;28;20054;-54
2022/07/18 06:45:21;;;;;;;3.97;2.55;;;21.30;41.50;;;21.25;38.43;98352.34;5005207;28;20111;-54
2022/07/18 06:47:49;;;;;;;3.15;2.50;;;21.30;41.20;;;21.31;38.08;98354.19;5006193;28;20045;-54
2022/07/18 06:50:18;;;;;;;4.35;2.92;;;21.40;41.10;;;21.37;38.32;98357.94;5006867;28;20057;-52
2022/07/18 06:52:46;;;;;;;4.63;2.60;;;21.50;41.20;;;21.44;37.85;98347.91;5007255;28;20056;-53
2022/07/18 06:55:14;;;;;;;6.03;2.47;;;21.50;40.80;;;21.50;37.80;98357.06;5006100;28;20046;-53
2022/07/18 06:57:42;;;;;;;5.20;2.92;;;21.70;40.60;;;21.55;37.11;98355.38;5004353;28;20272;-53
2022/07/18 07:00:14;;;;;;;3.75;2.40;;;21.70;40.00;;;21.62;36.31;98349.94;5005312;28;20053;-48
2022/07/18 07:02:45;;;;;;;4.22;2.35;;;21.80;38.50;;;21.67;35.42;98344.69;5008160;28;20053;-52
2022/07/18 07:05:16;;;;;;;3.67;2.75;;;21.80;37.80;;;21.74;35.11;98345.50;5005505;28;20046;-54
2022/07/18 07:07:45;;;;;;;4.72;2.22;;;21.80;37.10;;;21.81;35.33;98337.38;5005902;28;20398;-51
2022/07/18 07:10:17;;;;;;;4.95;2.67;;;22.00;37.20;;;21.86;34.52;98340.22;5005737;28;20042;-61
2022/07/18 07:12:48;;;;;;;3.92;2.00;;;22.00;36.90;;;21.95;34.63;98349.78;5005861;28;20344;-61
2022/07/18 07:15:21;;;;;;;4.65;2.20;;;22.10;36.60;;;22.02;34.38;98341.59;5010340;28;20056;-61
2022/07/18 07:17:50;;;;;;;3.80;2.42;;;22.20;36.40;;;22.08;34.43;98345.31;5010614;28;20053;-62
2022/07/18 07:20:20;;;;;;;3.00;2.50;;;22.20;36.30;;;22.16;33.68;98342.38;5010636;28;20062;-61
2022/07/18 07:22:56;;;;;;;3.20;2.25;;;22.30;35.50;;;22.22;33.00;98342.31;5010450;28;20050;-62
2022/07/18 07:25:26;;;;;;;3.20;2.40;;;22.40;35.10;;;22.31;32.89;98348.31;5009965;28;20054;-62
2022/07/18 07:27:54;;;;;;;2.90;2.28;;;22.40;34.80;;;22.37;32.94;98346.59;5010274;28;20068;-63
2022/07/18 07:30:22;;;;;;;3.88;2.35;;;22.50;34.90;;;22.44;32.95;98349.28;5009477;28;20233;-62
2022/07/18 07:32:51;;;;;;;3.65;2.60;;;22.60;35.00;;;22.49;32.90;98346.72;5009453;28;20041;-61
2022/07/18 07:35:22;;;;;;;5.40;2.42;;;22.60;35.00;;;22.56;33.13;98352.94;5010357;28;20054;-62
2022/07/18 07:37:57;;;;;;;8.52;2.55;;;22.70;34.60;;;22.60;31.23;98351.44;5009955;28;20054;-62
2022/07/18 07:40:28;;;;;;;4.45;2.25;;;22.80;32.90;;;22.67;32.14;98354.09;5009598;28;20075;-61
2022/07/18 07:43:11;;;;;;;2.22;1.90;;;22.80;33.90;;;22.72;31.48;98352.41;5008094;28;20360;-62
2022/07/18 07:45:39;;;;;;;4.85;2.15;;;22.90;32.80;;;22.78;31.65;98342.53;5009835;28;20058;-62
2022/07/18 07:48:07;;;;;;;4.70;2.30;;;22.90;33.50;;;22.83;32.14;98342.66;5010276;28;20585;-66
2022/07/18 07:50:35;;;;;;;3.28;2.33;;;23.00;33.80;;;22.91;32.46;98338.84;5010679;28;20451;-63
2022/07/18 07:53:03;;;;;;;3.95;2.55;;;23.00;34.20;;;22.99;32.62;98341.25;5009630;28;20056;-63
2022/07/18 07:55:31;;;;;;;4.20;2.40;;;23.10;34.20;;;23.06;32.36;98336.63;5009105;28;20057;-62
2022/07/18 07:57:59;;;;;;;5.78;2.28;;;23.20;33.80;;;23.11;31.59;98330.50;5008713;28;20068;-62
2022/07/18 08:00:28;;;;;;;3.17;2.30;;;23.20;33.20;;;23.15;31.70;98329.84;5013888;28;20348;-63
2022/07/18 08:03:04;;;;;;;4.40;1.85;;;23.30;33.10;;;23.21;31.07;98330.03;5017281;28;20056;-64
2022/07/18 08:05:44;;;;;;;3.72;2.50;;;23.40;32.00;;;23.27;30.29;98337.25;5017180;28;20044;-63
2022/07/18 08:08:12;;;;;;;3.78;2.13;;;23.40;31.50;;;23.32;30.50;98332.81;5016766;28;20064;-63
2022/07/18 08:10:41;;;;;;;3.15;2.10;;;23.50;32.00;;;23.38;30.48;98328.34;5018759;28;20045;-61
2022/07/18 08:13:12;;;;;;;3.38;2.10;;;23.60;31.90;;;23.46;30.67;98332.63;5017464;28;20272;-65
2022/07/18 08:15:41;;;;;;;2.85;2.50;;;23.60;31.80;;;23.50;30.78;98329.25;5018858;28;20385;-61
2022/07/18 08:18:08;;;;;;;4.32;2.20;;;23.60;32.20;;;23.53;30.81;98328.78;5015718;28;20057;-62
2022/07/18 08:20:36;;;;;;;2.97;2.40;;;23.70;32.30;;;23.57;30.23;98330.00;5021319;28;20286;-61
2022/07/18 08:23:07;;;;;;;3.85;2.60;;;23.70;31.80;;;23.64;30.46;98320.94;5028231;28;20059;-61
2022/07/18 08:25:39;;;;;;;2.60;2.40;;;23.80;31.80;;;23.72;30.66;98331.47;5029050;28;20053;-61
2022/07/18 08:28:07;;;;;;;4.22;2.15;;;23.90;32.10;;;23.77;30.70;98323.47;5028816;28;20041;-61
2022/07/18 08:30:37;;;;;;;2.70;2.33;;;23.90;32.00;;;23.83;30.42;98329.91;5011519;28;20689;-61
2022/07/18 08:33:06;;;;;;;3.00;2.40;;;24.00;31.70;;;23.89;30.37;98328.97;5011154;28;20052;-61
2022/07/18 08:35:35;;;;;;;5.50;2.30;;;24.10;31.80;;;23.94;30.23;98329.94;5029952;28;20060;-61
2022/07/18 08:38:04;;;;;;;3.85;2.50;;;24.10;31.60;;;23.99;30.14;98326.53;5029432;28;20045;-64
2022/07/18 08:40:32;;;;;;;4.07;2.85;;;24.10;31.30;;;24.06;29.83;98323.69;5028775;28;20061;-63
2022/07/18 08:42:59;;;;;;;6.63;2.00;;;24.20;31.10;;;24.12;29.43;98329.06;5028977;28;20259;-62
2022/07/18 08:45:48;;;;;;;3.00;2.55;;;24.30;30.80;;;24.20;29.50;98327.91;5025781;28;20070;-62
2022/07/18 08:48:17;;;;;;;4.32;2.45;;;24.30;30.80;;;24.22;29.52;98333.94;5028423;28;20366;-62
2022/07/18 08:50:47;;;;;;;3.75;2.55;;;24.40;30.70;;;24.28;29.17;98327.56;5028443;28;20247;-63
2022/07/18 08:53:16;;;;;;;6.38;2.40;;;24.50;30.40;;;24.35;29.49;98331.00;5029150;28;20047;-63
2022/07/18 08:55:45;;;;;;;5.45;3.22;;;24.50;30.70;;;24.41;30.04;98336.56;5028154;28;20344;-62
2022/07/18 08:58:15;;;;;;;7.03;3.47;;;24.60;31.60;;;24.48;30.22;98331.84;5027424;28;20061;-64
2022/07/18 09:01:02;;;;;;;5.53;2.85;;;24.70;31.80;;;24.55;30.37;98338.88;5027577;28;20049;-63
2022/07/18 09:03:30;;;;;;;6.80;2.90;;;24.80;31.50;;;24.62;29.97;98330.59;5027345;28;20053;-62
2022/07/18 09:06:12;;;;;;;4.80;2.70;;;24.80;31.30;;;24.72;29.96;98332.75;5029527;28;20052;-63
2022/07/18 09:08:59;;;;;;;6.63;3.50;;;24.90;31.20;;;24.75;29.44;98335.81;5028136;28;20045;-62
2022/07/18 09:11:28;;;;;;;6.53;2.90;;;24.90;30.20;;;24.82;29.73;98332.97;5028359;28;20366;-62
2022/07/18 09:14:40;;;;;;;4.68;3.15;;;25.00;30.90;;;24.91;29.58;98336.16;5027708;28;20053;-62
2022/07/18 09:17:09;;;;;;;6.55;2.92;;;25.10;30.40;;;24.99;29.37;98333.09;5028038;28;20053;-62
2022/07/18 09:19:55;;;;;;;5.45;2.67;;;25.10;30.40;;;25.01;29.35;98341.88;5028460;28;20053;-62
2022/07/18 09:22:25;;;;;;;12.45;4.20;;;25.20;30.40;;;25.07;28.89;98343.63;5028057;28;20098;-62
2022/07/18 09:25:13;;;;;;;4.43;2.58;;;25.20;30.10;;;25.09;28.52;98344.22;5027973;28;20262;-62
2022/07/18 09:27:41;;;;;;;5.53;2.90;;;25.40;29.20;;;25.14;28.71;98330.72;5026318;28;20059;-64
2022/07/18 09:30:20;;;;;;;8.45;3.38;;;25.40;29.70;;;25.23;28.63;98335.81;5028185;28;20046;-62
2022/07/18 09:33:02;;;;;;;4.75;2.40;;;25.60;29.20;;;25.28;27.33;98330.47;5029161;28;20402;-62
2022/07/18 09:35:54;;;;;;;4.05;2.92;;;25.70;29.00;;;25.41;27.87;98330.22;5028225;28;20064;-62
2022/07/18 09:38:28;;;;;;;7.43;2.88;;;25.80;28.30;;;25.49;27.56;98332.59;5027662;28;20057;-63
2022/07/18 09:40:59;;;;;;;7.82;2.85;;;25.80;28.50;;;25.55;27.55;98328.03;5026921;28;20075;-62
2022/07/18 09:43:28;;;;;;;3.28;2.63;;;25.90;28.70;;;25.62;27.29;98326.00;5026544;28;20374;-64
2022/07/18 09:45:56;;;;;;;5.72;2.65;;;25.90;28.50;;;25.66;27.19;98308.09;5024268;28;20059;-64
2022/07/18 09:48:26;;;;;;;3.80;3.22;;;26.00;28.70;;;25.73;26.73;98313.41;5025563;28;20263;-63
2022/07/18 09:51:06;;;;;;;4.32;2.50;;;26.00;28.30;;;25.80;26.81;98315.97;5027752;28;20276;-63
2022/07/18 09:53:39;;;;;;;8.95;3.20;;;26.20;28.30;;;25.85;26.37;98313.38;5028012;28;20327;-63
2022/07/18 09:56:29;;;;;;;2.75;2.38;;;26.20;28.30;;;25.90;26.48;98307.97;5027629;28;20059;-63
2022/07/18 09:58:57;;;;;;;4.85;2.80;;;26.20;27.80;;;25.98;27.12;98304.91;5026118;28;20063;-62
2022/07/18 10:01:27;;;;;;;3.55;2.05;;;26.20;28.30;;;26.05;26.32;98313.75;5027853;28;20119;-62
2022/07/18 10:03:55;;;;;;;4.15;2.25;;;26.30;28.10;;;26.12;26.70;98308.16;5026865;28;20057;-62
2022/07/18 10:06:23;;;;;;;4.15;2.80;;;26.20;28.20;;;26.19;26.46;98306.09;5027414;28;20049;-61
2022/07/18 10:08:53;;;;;;;4.43;2.72;;;26.40;28.10;;;26.26;26.47;98309.47;5026462;28;20400;-62
2022/07/18 10:11:22;;;;;;;4.10;3.13;;;26.50;28.00;;;26.32;26.20;98313.13;5025183;28;20303;-63
2022/07/18 10:13:51;;;;;;;3.70;2.55;;;26.50;27.90;;;26.36;25.82;98305.28;5025775;28;20069;-62
2022/07/18 10:16:20;;;;;;;2.75;2.55;;;26.60;27.50;;;26.40;25.79;98312.72;5007310;28;20053;-62
2022/07/18 10:18:48;;;;;;;3.50;2.95;;;26.70;27.40;;;26.47;25.98;98307.09;5007808;28;20053;-63
2022/07/18 10:21:19;;;;;;;3.30;2.85;;;26.70;27.20;;;26.52;25.21;98305.28;5007308;28;20061;-62
2022/07/18 10:23:49;;;;;;;3.20;2.08;;;26.80;26.90;;;26.64;25.56;98309.88;5006483;28;20386;-64
2022/07/18 10:26:24;;;;;;;4.13;2.60;;;26.80;27.20;;;26.71;25.58;98308.63;5007308;28;20046;-63
2022/07/18 10:28:58;;;;;;;3.65;2.70;;;26.90;26.80;;;26.77;25.39;98308.69;5006884;28;20060;-62